createdAt,value
2018-04-10T00:00:30.823Z,5.10
2018-04-10T00:02:58.658Z,4.70
2018-04-10T00:05:26.373Z,5.80
2018-04-10T00:07:54.186Z,4.83
2018-04-10T00:10:21.966Z,5.20
2018-04-10T00:12:49.577Z,4.70
2018-04-10T00:15:17.305Z,4.17
2018-04-10T00:17:45.091Z,5.60
2018-04-10T00:20:13.017Z,4.60
2018-04-10T00:22:40.877Z,4.60
2018-04-10T00:25:08.788Z,6.00
2018-04-10T00:27:36.321Z,4.73
2018-04-10T00:30:03.946Z,6.13
2018-04-10T00:32:31.762Z,4.70
2018-04-10T00:34:59.447Z,5.73
2018-04-10T00:37:27.257Z,5.83
2018-04-10T00:39:54.961Z,4.90
2018-04-10T00:42:22.618Z,6.17
2018-04-10T00:44:50.368Z,5.20
2018-04-10T00:47:18.319Z,5.50
2018-04-10T00:49:46.182Z,6.13
2018-04-10T00:52:13.861Z,5.87
2018-04-10T00:54:41.502Z,4.83
2018-04-10T00:57:09.313Z,5.23
2018-04-10T00:59:37.002Z,5.17
2018-04-10T01:02:04.744Z,5.47
2018-04-10T01:04:32.397Z,5.73
2018-04-10T01:07:00.377Z,5.90
2018-04-10T01:09:28.098Z,5.33
2018-04-10T01:11:55.906Z,5.13
2018-04-10T01:14:23.778Z,4.67
2018-04-10T01:16:51.538Z,5.10
2018-04-10T01:19:19.219Z,5.47
2018-04-10T01:21:47.031Z,4.67
2018-04-10T01:24:14.684Z,4.80
2018-04-10T01:26:42.397Z,5.53
2018-04-10T01:29:10.156Z,4.83
2018-04-10T01:31:37.876Z,4.40
2018-04-10T01:34:05.638Z,4.97
2018-04-10T01:36:33.326Z,4.90
2018-04-10T01:39:01.058Z,4.47
2018-04-10T01:41:28.642Z,5.70
2018-04-10T01:43:56.317Z,4.83
2018-04-10T01:46:24.358Z,4.53
2018-04-10T01:48:52.093Z,5.30
2018-04-10T01:51:19.776Z,4.60
2018-04-10T01:53:47.492Z,4.77
2018-04-10T01:56:15.318Z,5.20
2018-04-10T01:58:43.293Z,4.67
2018-04-10T02:01:10.968Z,4.57
2018-04-10T02:03:38.667Z,4.67
2018-04-10T02:06:07.420Z,4.70
2018-04-10T02:08:35.732Z,4.30
2018-04-10T02:11:03.456Z,5.20
2018-04-10T02:13:31.437Z,4.73
2018-04-10T02:15:59.222Z,4.47
2018-04-10T02:18:27.111Z,5.13
2018-04-10T02:20:54.923Z,4.50
2018-04-10T02:23:22.650Z,4.93
2018-04-10T02:25:50.945Z,5.27
2018-04-10T02:28:18.633Z,5.67
2018-04-10T02:30:46.263Z,5.60
2018-04-10T02:33:13.915Z,5.43
2018-04-10T02:35:41.620Z,5.80
2018-04-10T02:38:09.437Z,5.60
2018-04-10T02:40:37.189Z,5.47
2018-04-10T02:43:04.960Z,4.80
2018-04-10T02:45:32.819Z,5.40
2018-04-10T02:48:00.607Z,4.43
2018-04-10T02:50:28.593Z,5.50
2018-04-10T02:52:56.279Z,4.83
2018-04-10T02:55:23.935Z,5.93
2018-04-10T02:57:51.604Z,5.70
2018-04-10T03:00:19.645Z,5.23
2018-04-10T03:02:47.472Z,5.00
2018-04-10T03:05:15.344Z,4.90
2018-04-10T03:07:43.069Z,5.20
2018-04-10T03:10:10.874Z,6.40
2018-04-10T03:12:38.684Z,6.23
2018-04-10T03:15:06.301Z,5.73
2018-04-10T03:17:33.835Z,5.40
2018-04-10T03:20:01.543Z,5.50
2018-04-10T03:22:29.200Z,4.90
2018-04-10T03:24:56.824Z,5.33
2018-04-10T03:27:24.681Z,5.60
2018-04-10T03:29:52.498Z,5.30
2018-04-10T03:32:20.329Z,4.73
2018-04-10T03:34:48.070Z,5.10
2018-04-10T03:37:15.631Z,4.30
2018-04-10T03:39:43.457Z,4.80
2018-04-10T03:42:11.163Z,5.60
2018-04-10T03:44:39.095Z,5.77
2018-04-10T03:47:06.769Z,5.77
2018-04-10T03:49:34.553Z,5.40
2018-04-10T03:52:02.243Z,5.60
2018-04-10T03:54:29.824Z,5.43
2018-04-10T03:56:57.469Z,5.23
2018-04-10T03:59:25.189Z,6.03
2018-04-10T04:01:53.080Z,5.73
2018-04-10T04:04:20.973Z,5.20
2018-04-10T04:06:48.610Z,5.87
2018-04-10T04:09:16.423Z,5.30
2018-04-10T04:11:44.134Z,5.37
2018-04-10T04:14:11.895Z,6.47
2018-04-10T04:19:55.435Z,5.97
2018-04-10T04:22:34.958Z,7.93
2018-04-10T04:25:02.469Z,7.00
2018-04-10T04:27:29.999Z,6.87
2018-04-10T04:29:57.541Z,6.70
2018-04-10T04:32:25.330Z,6.07
2018-04-10T04:34:53.044Z,7.13
2018-04-10T04:37:20.898Z,6.83
2018-04-10T04:39:48.720Z,6.90
2018-04-10T04:42:16.449Z,7.80
2018-04-10T04:44:44.509Z,7.07
2018-04-10T04:47:12.429Z,7.93
2018-04-10T04:49:41.148Z,6.63
2018-04-10T04:52:08.766Z,7.53
2018-04-10T04:54:36.544Z,5.83
2018-04-10T04:57:04.094Z,6.87
2018-04-10T04:59:31.672Z,6.57
2018-04-10T05:01:59.286Z,6.73
2018-04-10T05:04:26.950Z,6.40
2018-04-10T05:06:54.620Z,6.43
2018-04-10T05:09:22.583Z,5.90
2018-04-10T05:11:50.315Z,5.73
2018-04-10T05:14:17.962Z,7.13
2018-04-10T05:16:45.575Z,7.50
2018-04-10T05:19:13.213Z,6.50
2018-04-10T05:21:41.309Z,6.10
2018-04-10T05:24:09.074Z,6.47
2018-04-10T05:26:36.700Z,5.77
2018-04-10T05:29:04.522Z,7.47
2018-04-10T05:31:32.315Z,6.10
2018-04-10T05:34:00.120Z,6.53
2018-04-10T05:36:27.974Z,7.60
2018-04-10T05:38:55.615Z,6.03
2018-04-10T05:41:23.288Z,6.70
2018-04-10T05:43:51.000Z,6.30
2018-04-10T05:46:18.579Z,6.23
2018-04-10T05:48:46.165Z,6.67
2018-04-10T05:51:13.827Z,6.43
2018-04-10T05:53:41.568Z,6.10
2018-04-10T05:56:09.419Z,6.40
2018-04-10T05:58:37.135Z,7.17
2018-04-10T06:01:04.814Z,9.00
2018-04-10T06:03:32.634Z,7.30
2018-04-10T06:06:00.283Z,6.60
2018-04-10T06:08:28.135Z,6.60
2018-04-10T06:10:56.090Z,6.50
2018-04-10T06:13:23.840Z,7.03
2018-04-10T06:15:51.790Z,7.97
2018-04-10T06:18:19.388Z,8.33
2018-04-10T06:20:47.101Z,6.47
2018-04-10T06:23:14.866Z,7.27
2018-04-10T06:25:42.568Z,6.30
2018-04-10T06:28:10.376Z,7.07
2018-04-10T06:30:38.114Z,6.90
2018-04-10T06:33:05.897Z,7.30
2018-04-10T06:35:33.515Z,6.70
2018-04-10T06:38:01.415Z,6.60
2018-04-10T06:40:29.189Z,7.00
2018-04-10T06:42:56.897Z,6.87
2018-04-10T06:45:24.697Z,7.63
2018-04-10T06:47:52.315Z,7.17
2018-04-10T06:50:20.127Z,7.40
2018-04-10T06:52:47.882Z,6.33
2018-04-10T06:55:15.635Z,6.33
2018-04-10T06:57:43.417Z,6.17
2018-04-10T07:00:11.230Z,6.30
2018-04-10T07:02:39.300Z,6.30
2018-04-10T07:05:07.085Z,6.40
2018-04-10T07:07:34.885Z,6.00
2018-04-10T07:10:02.735Z,7.47
2018-04-10T07:12:30.415Z,7.47
2018-04-10T07:14:58.521Z,6.43
2018-04-10T07:17:26.159Z,6.40
2018-04-10T07:19:53.789Z,6.80
2018-04-10T07:22:21.534Z,6.63
2018-04-10T07:24:49.192Z,7.40
2018-04-10T07:27:16.892Z,5.97
2018-04-10T07:29:44.719Z,6.40
2018-04-10T07:32:12.365Z,6.70
2018-04-10T07:34:40.052Z,5.97
2018-04-10T07:37:07.655Z,7.73
2018-04-10T07:39:35.468Z,7.07
2018-04-10T07:42:03.306Z,6.93
2018-04-10T07:44:30.941Z,6.60
2018-04-10T07:46:58.736Z,7.27
2018-04-10T07:49:26.422Z,7.03
2018-04-10T07:51:54.100Z,6.77
2018-04-10T07:54:21.885Z,7.10
2018-04-10T07:56:49.650Z,7.13
2018-04-10T07:59:17.674Z,9.80
2018-04-10T08:01:45.379Z,7.53
2018-04-10T08:04:13.120Z,6.83
2018-04-10T08:06:40.937Z,6.40
2018-04-10T08:09:08.827Z,5.70
2018-04-10T08:11:36.584Z,6.53
2018-04-10T08:14:04.257Z,7.13
2018-04-10T08:16:31.991Z,6.37
2018-04-10T08:18:59.650Z,6.63
2018-04-10T08:21:27.726Z,6.50
2018-04-10T08:23:55.406Z,6.70
2018-04-10T08:26:23.135Z,7.57
2018-04-10T08:28:50.942Z,7.33
2018-04-10T08:31:18.944Z,7.30
2018-04-10T08:33:46.844Z,8.20
2018-04-10T08:36:14.759Z,8.27
2018-04-10T08:38:42.529Z,7.87
2018-04-10T08:41:10.469Z,8.37
2018-04-10T08:43:38.109Z,8.47
2018-04-10T08:46:05.690Z,9.37
2018-04-10T08:48:33.510Z,7.73
2018-04-10T08:51:01.199Z,8.33
2018-04-10T08:53:28.719Z,8.33
2018-04-10T08:55:56.264Z,8.20
2018-04-10T08:58:24.035Z,8.30
2018-04-10T09:00:51.769Z,8.63
2018-04-10T09:03:19.548Z,8.00
2018-04-10T09:05:47.409Z,7.03
2018-04-10T09:08:15.041Z,6.77
2018-04-10T09:10:43.221Z,6.47
2018-04-10T09:13:11.605Z,7.37
2018-04-10T09:15:39.295Z,6.60
2018-04-10T09:18:07.161Z,6.40
2018-04-10T09:20:34.829Z,6.27
2018-04-10T09:23:02.819Z,5.67
2018-04-10T09:25:30.509Z,5.20
2018-04-10T09:27:58.099Z,5.07
2018-04-10T09:30:25.921Z,5.60
2018-04-10T09:32:53.675Z,4.30
2018-04-10T09:35:21.419Z,4.90
2018-04-10T09:37:49.029Z,4.53
2018-04-10T09:40:16.774Z,4.77
2018-04-10T09:42:44.437Z,4.30
2018-04-10T09:45:12.091Z,4.20
2018-04-10T09:47:39.723Z,3.60
2018-04-10T09:50:07.276Z,4.97
2018-04-10T09:52:35.010Z,4.10
2018-04-10T09:55:02.738Z,3.43
2018-04-10T09:57:30.268Z,4.07
2018-04-10T09:59:57.888Z,4.40
2018-04-10T10:02:25.413Z,3.50
2018-04-10T10:04:53.214Z,3.00
2018-04-10T10:07:20.882Z,3.30
2018-04-10T10:09:48.518Z,3.70
2018-04-10T10:12:16.268Z,3.60
2018-04-10T10:14:44.117Z,3.37
2018-04-10T10:17:11.828Z,3.50
2018-04-10T10:19:39.621Z,4.03
2018-04-10T10:22:07.203Z,4.17
2018-04-10T10:24:34.841Z,3.90
2018-04-10T10:27:02.424Z,3.90
2018-04-10T10:29:30.109Z,3.40
2018-04-10T10:31:57.910Z,3.60
2018-04-10T10:34:25.764Z,3.70
2018-04-10T10:36:53.447Z,4.13
2018-04-10T10:39:21.047Z,4.17
2018-04-10T10:41:48.782Z,4.17
2018-04-10T10:44:16.360Z,4.20
2018-04-10T10:46:43.973Z,3.73
2018-04-10T10:49:11.705Z,4.80
2018-04-10T10:51:39.386Z,4.97
2018-04-10T10:54:07.005Z,4.97
2018-04-10T10:56:34.771Z,4.97
2018-04-10T10:59:02.763Z,4.13
2018-04-10T11:01:30.637Z,4.33
2018-04-10T11:03:58.444Z,4.57
2018-04-10T11:06:26.205Z,4.50
2018-04-10T11:08:53.869Z,4.63
2018-04-10T11:11:21.539Z,5.07
2018-04-10T11:13:49.186Z,4.87
2018-04-10T11:16:17.001Z,4.50
2018-04-10T11:18:44.581Z,5.43
2018-04-10T11:21:12.173Z,5.00
2018-04-10T11:23:39.861Z,4.80
2018-04-10T11:26:07.723Z,4.93
2018-04-10T11:28:35.369Z,4.80
2018-04-10T11:31:03.143Z,5.03
2018-04-10T11:33:30.993Z,4.50
2018-04-10T11:35:58.679Z,5.50
2018-04-10T11:38:26.413Z,5.30
2018-04-10T11:40:54.251Z,5.57
2018-04-10T11:43:21.985Z,6.30
2018-04-10T11:45:49.747Z,6.17
2018-04-10T11:48:17.581Z,5.07
2018-04-10T11:50:45.287Z,5.57
2018-04-10T11:53:13.109Z,5.70
2018-04-10T11:55:40.837Z,6.33
2018-04-10T11:58:08.938Z,6.17
2018-04-10T12:00:36.860Z,5.40
2018-04-10T12:03:04.634Z,5.73
2018-04-10T12:05:32.405Z,6.10
2018-04-10T12:08:00.104Z,5.40
2018-04-10T12:10:27.745Z,5.80
2018-04-10T12:12:55.493Z,5.10
2018-04-10T12:15:23.446Z,5.47
2018-04-10T12:17:51.288Z,6.00
2018-04-10T12:20:19.162Z,5.60
2018-04-10T12:22:46.943Z,6.28
2018-04-10T12:25:14.878Z,5.87
2018-04-10T12:27:42.713Z,5.70
2018-04-10T12:30:10.623Z,6.50
2018-04-10T12:32:38.307Z,6.93
2018-04-10T12:35:06.009Z,6.40
2018-04-10T12:37:33.695Z,6.47
2018-04-10T12:40:01.533Z,6.60
2018-04-10T12:42:29.300Z,6.73
2018-04-10T12:44:57.108Z,5.23
2018-04-10T12:47:24.842Z,6.05
2018-04-10T12:49:52.559Z,6.50
2018-04-10T12:52:20.705Z,6.40
2018-04-10T12:54:49.421Z,7.37
2018-04-10T12:57:17.169Z,6.43
2018-04-10T12:59:44.742Z,7.20
2018-04-10T13:02:12.379Z,6.50
2018-04-10T13:04:40.330Z,7.13
2018-04-10T13:07:07.992Z,6.80
2018-04-10T13:09:35.673Z,7.10
2018-04-10T13:12:03.314Z,8.00
2018-04-10T13:14:30.887Z,6.77
2018-04-10T13:16:58.683Z,6.90
2018-04-10T13:19:26.337Z,7.90
2018-04-10T13:21:53.967Z,6.60
2018-04-10T13:24:21.593Z,7.33
2018-04-10T13:26:49.259Z,7.23
2018-04-10T13:29:16.839Z,8.03
2018-04-10T13:31:44.782Z,7.70
2018-04-10T13:34:12.896Z,9.30
2018-04-10T13:36:41.246Z,8.13
2018-04-10T13:39:09.061Z,9.80
2018-04-10T13:41:36.639Z,10.20
2018-04-10T13:44:04.501Z,9.90
2018-04-10T13:46:32.102Z,10.60
2018-04-10T13:48:59.914Z,11.83
2018-04-10T13:51:28.194Z,11.40
2018-04-10T13:53:55.934Z,11.43
2018-04-10T13:56:23.660Z,11.90
2018-04-10T13:58:51.629Z,11.10
2018-04-10T14:01:19.454Z,10.90
2018-04-10T14:03:47.092Z,9.80
2018-04-10T14:06:15.159Z,10.00
2018-04-10T14:08:42.864Z,11.60
2018-04-10T14:11:10.581Z,11.70
2018-04-10T14:13:38.139Z,11.10
2018-04-10T14:16:05.727Z,10.53
2018-04-10T14:18:33.302Z,11.13
2018-04-10T14:21:00.999Z,11.70
2018-04-10T14:23:28.570Z,12.40
2018-04-10T14:25:56.269Z,10.97
2018-04-10T14:28:23.875Z,10.90
2018-04-10T14:30:51.953Z,11.00
2018-04-10T14:33:19.874Z,11.63
2018-04-10T14:35:47.599Z,9.70
2018-04-10T14:38:15.406Z,11.70
2018-04-10T14:40:43.074Z,10.53
2018-04-10T14:43:10.778Z,12.03
2018-04-10T14:45:38.611Z,9.33
2018-04-10T14:48:06.348Z,8.97
2018-04-10T14:50:34.290Z,9.90
2018-04-10T14:53:02.373Z,10.00
2018-04-10T14:55:30.545Z,10.70
2018-04-10T14:57:58.469Z,13.33
2018-04-10T15:00:26.149Z,13.50
2018-04-10T15:02:53.984Z,13.03
2018-04-10T15:05:21.838Z,12.83
2018-04-10T15:07:49.565Z,15.20
2018-04-10T15:10:17.483Z,18.77
2018-04-10T15:12:45.233Z,18.87
2018-04-10T15:15:13.164Z,17.40
2018-04-10T15:17:40.880Z,17.23
2018-04-10T15:20:08.634Z,16.53
2018-04-10T15:22:36.238Z,15.30
2018-04-10T15:25:03.935Z,15.07
2018-04-10T15:27:31.677Z,19.50
2018-04-10T15:29:59.475Z,16.03
2018-04-10T15:32:27.155Z,16.27
2018-04-10T15:34:55.095Z,17.77
2018-04-10T15:37:22.918Z,16.23
2018-04-10T15:39:50.729Z,18.23
2018-04-10T15:42:18.563Z,10.70
2018-04-10T15:44:46.349Z,3.00
2018-04-10T15:47:14.131Z,2.67
2018-04-10T15:49:41.973Z,2.37
2018-04-10T15:52:09.764Z,2.27
2018-04-10T15:54:37.429Z,2.37
2018-04-10T15:57:05.106Z,2.53
2018-04-10T15:59:33.914Z,3.03
2018-04-10T16:02:01.631Z,2.50
2018-04-10T16:04:29.429Z,3.10
2018-04-10T16:06:57.245Z,3.47
2018-04-10T16:09:24.869Z,3.60
2018-04-10T16:11:52.664Z,3.90
2018-04-10T16:14:20.408Z,3.67
2018-04-10T16:16:48.177Z,4.70
2018-04-10T16:19:16.120Z,5.03
2018-04-10T16:21:43.816Z,6.90
2018-04-10T16:24:11.498Z,6.50
2018-04-10T16:26:39.333Z,6.57
2018-04-10T16:29:06.978Z,5.53
2018-04-10T16:31:34.879Z,6.53
2018-04-10T16:34:02.594Z,6.97
2018-04-10T16:36:30.385Z,6.27
2018-04-10T16:38:58.254Z,5.17
2018-04-10T16:41:25.993Z,6.10
2018-04-10T16:43:53.920Z,4.57
2018-04-10T16:46:21.645Z,5.10
2018-04-10T16:48:49.283Z,5.10
2018-04-10T16:51:17.095Z,5.93
2018-04-10T16:53:44.980Z,6.77
2018-04-10T16:56:12.839Z,4.07
2018-04-10T16:58:40.578Z,4.77
2018-04-10T17:01:08.323Z,5.40
2018-04-10T17:03:36.089Z,4.77
2018-04-10T17:06:03.988Z,4.90
2018-04-10T17:08:31.738Z,4.63
2018-04-10T17:10:59.563Z,4.10
2018-04-10T17:13:27.313Z,3.43
2018-04-10T17:15:55.335Z,4.50
2018-04-10T17:18:23.179Z,3.10
2018-04-10T17:20:51.031Z,3.33
2018-04-10T17:23:18.695Z,2.70
2018-04-10T17:25:46.450Z,3.13
2018-04-10T17:28:14.483Z,3.40
2018-04-10T17:30:42.301Z,3.20
2018-04-10T17:33:09.908Z,3.53
2018-04-10T17:35:37.715Z,3.37
2018-04-10T17:38:05.590Z,3.10
2018-04-10T17:40:33.373Z,3.40
2018-04-10T17:43:01.163Z,2.73
2018-04-10T17:45:29.874Z,2.90
2018-04-10T17:47:57.610Z,2.80
2018-04-10T17:50:25.564Z,2.70
2018-04-10T17:52:53.199Z,1.97
2018-04-10T17:55:20.753Z,1.73
2018-04-10T17:57:48.585Z,1.70
2018-04-10T18:00:16.500Z,1.90
2018-04-10T18:02:44.302Z,1.97
2018-04-10T18:05:12.005Z,1.93
2018-04-10T18:07:39.745Z,1.90
2018-04-10T18:10:07.683Z,1.63
2018-04-10T18:12:35.644Z,1.60
2018-04-10T18:15:03.895Z,2.00
2018-04-10T18:17:31.629Z,2.17
2018-04-10T18:19:59.419Z,2.10
2018-04-10T18:22:27.119Z,2.70
2018-04-10T18:24:54.956Z,1.77
2018-04-10T18:27:22.943Z,1.93
2018-04-10T18:29:50.700Z,1.87
2018-04-10T18:32:18.649Z,2.23
2018-04-10T18:34:46.429Z,2.00
2018-04-10T18:37:14.165Z,2.03
2018-04-10T18:39:42.075Z,1.83
2018-04-10T18:42:09.985Z,2.07
2018-04-10T18:44:37.714Z,1.80
2018-04-10T18:47:05.806Z,2.10
2018-04-10T18:49:33.783Z,2.50
2018-04-10T18:52:01.761Z,2.30
2018-04-10T18:54:29.526Z,2.70
2018-04-10T18:56:57.384Z,3.20
2018-04-10T18:59:25.667Z,2.63
2018-04-10T19:01:53.470Z,2.60
2018-04-10T19:04:21.299Z,1.90
2018-04-10T19:06:49.080Z,2.37
2018-04-10T19:09:17.254Z,2.37
2018-04-10T19:11:45.185Z,2.77
2018-04-10T19:14:13.005Z,1.90
2018-04-10T19:16:40.911Z,2.77
2018-04-10T19:19:08.773Z,2.77
2018-04-10T19:21:36.517Z,2.83
2018-04-10T19:24:04.522Z,2.83
2018-04-10T19:26:32.341Z,3.47
2018-04-10T19:29:00.368Z,3.80
2018-04-10T19:31:28.221Z,3.17
2018-04-10T19:33:56.174Z,3.30
2018-04-10T19:36:24.349Z,3.13
2018-04-10T19:38:52.229Z,2.70
2018-04-10T19:41:20.095Z,2.30
2018-04-10T19:43:48.116Z,2.10
2018-04-10T19:46:15.971Z,2.13
2018-04-10T19:48:44.025Z,1.70
2018-04-10T19:51:11.889Z,1.83
2018-04-10T19:53:39.720Z,2.07
2018-04-10T19:56:07.614Z,2.20
2018-04-10T19:58:35.506Z,2.60
2018-04-10T20:01:03.338Z,3.20
2018-04-10T20:03:31.439Z,2.10
2018-04-10T20:05:59.335Z,2.10
2018-04-10T20:08:27.216Z,2.60
2018-04-10T20:10:54.980Z,2.20
2018-04-10T20:13:22.938Z,1.60
2018-04-10T20:15:50.822Z,2.77
2018-04-10T20:18:18.821Z,2.30
2018-04-10T20:20:46.885Z,2.37
2018-04-10T20:23:14.870Z,3.10
2018-04-10T20:25:42.671Z,2.60
2018-04-10T20:28:10.630Z,2.53
2018-04-10T20:30:38.449Z,3.17
2018-04-10T20:33:06.205Z,2.93
2018-04-10T20:35:34.101Z,3.00
2018-04-10T20:38:01.854Z,3.30
2018-04-10T20:40:29.669Z,3.47
2018-04-10T20:42:57.362Z,3.50
2018-04-10T20:45:25.426Z,3.67
2018-04-10T20:47:53.085Z,3.83
2018-04-10T20:50:20.768Z,3.40
2018-04-10T20:52:48.509Z,3.00
2018-04-10T20:55:16.334Z,3.47
2018-04-10T20:57:44.269Z,3.07
2018-04-10T21:00:12.209Z,3.80
2018-04-10T21:02:39.780Z,3.00
2018-04-10T21:05:07.432Z,2.60
2018-04-10T21:07:35.272Z,1.87
2018-04-10T21:10:03.127Z,3.57
2018-04-10T21:12:30.887Z,3.07
2018-04-10T21:14:58.855Z,2.60
2018-04-10T21:17:26.575Z,2.10
2018-04-10T21:19:54.282Z,1.63
2018-04-10T21:22:22.058Z,2.57
2018-04-10T21:24:49.701Z,1.87
2018-04-10T21:27:17.333Z,1.90
2018-04-10T21:29:45.076Z,2.03
2018-04-10T21:32:12.752Z,2.00
2018-04-10T21:34:40.438Z,1.57
2018-04-10T21:37:08.031Z,1.47
2018-04-10T21:39:35.905Z,1.00
2018-04-10T21:42:03.711Z,1.27
2018-04-10T21:44:31.341Z,1.20
2018-04-10T21:46:59.150Z,1.70
2018-04-10T21:49:26.931Z,1.80
2018-04-10T21:51:54.682Z,1.70
2018-04-10T21:54:22.265Z,1.57
2018-04-10T21:56:49.970Z,1.20
2018-04-10T21:59:17.837Z,1.20
2018-04-10T22:01:45.475Z,1.10
2018-04-10T22:04:13.224Z,3.00
2018-04-10T22:06:41.511Z,1.30
2018-04-10T22:09:09.070Z,1.23
2018-04-10T22:11:36.910Z,1.70
2018-04-10T22:14:04.680Z,1.70
2018-04-10T22:16:32.391Z,1.73
2018-04-10T22:19:00.152Z,1.50
2018-04-10T22:21:28.297Z,1.70
2018-04-10T22:23:56.056Z,1.80
2018-04-10T22:26:23.917Z,1.30
2018-04-10T22:28:51.606Z,1.40
2018-04-10T22:31:19.381Z,1.60
2018-04-10T22:33:47.052Z,1.53
2018-04-10T22:36:15.009Z,1.80
2018-04-10T22:38:42.827Z,1.63
2018-04-10T22:41:10.505Z,1.40
2018-04-10T22:43:38.145Z,1.37
2018-04-10T22:46:05.820Z,1.20
2018-04-10T22:48:33.557Z,0.93
2018-04-10T22:51:01.344Z,0.83
2018-04-10T22:53:29.227Z,1.33
2018-04-10T22:55:57.011Z,1.10
2018-04-10T22:58:24.732Z,1.10
2018-04-10T23:00:52.446Z,1.30
2018-04-10T23:03:20.100Z,1.37
2018-04-10T23:05:47.773Z,1.47
2018-04-10T23:08:15.442Z,1.07
2018-04-10T23:10:43.135Z,1.37
2018-04-10T23:13:10.899Z,1.00
2018-04-10T23:15:39.440Z,1.00
2018-04-10T23:18:07.002Z,1.17
2018-04-10T23:20:34.732Z,1.30
2018-04-10T23:23:02.479Z,1.20
2018-04-10T23:25:30.177Z,1.30
2018-04-10T23:27:57.731Z,1.40
2018-04-10T23:30:25.667Z,1.40
2018-04-10T23:32:53.529Z,1.30
2018-04-10T23:35:21.117Z,1.50
2018-04-10T23:37:48.873Z,1.40
2018-04-10T23:40:16.506Z,1.10
2018-04-10T23:42:44.388Z,1.00
2018-04-10T23:45:12.196Z,1.53
2018-04-10T23:47:39.945Z,1.33
2018-04-10T23:50:07.670Z,1.67
2018-04-10T23:52:35.495Z,2.00
2018-04-10T23:55:03.283Z,1.90
2018-04-10T23:57:30.918Z,2.60
2018-04-10T23:59:58.842Z,1.40
